createdAt,value
2018-02-24T00:00:49.072Z,53.11
2018-02-24T00:01:59.896Z,52.92
2018-02-24T00:03:11.793Z,53.11
2018-02-24T00:04:22.525Z,53.58
2018-02-24T00:05:33.493Z,53.39
2018-02-24T00:06:44.271Z,53.2
2018-02-24T00:07:54.563Z,53.58
2018-02-24T00:09:05.324Z,53.49
2018-02-24T00:10:16.868Z,53.68
2018-02-24T00:11:27.753Z,53.58
2018-02-24T00:12:38.556Z,53.39
2018-02-24T00:13:49.448Z,53.68
2018-02-24T00:14:59.906Z,53.87
2018-02-24T00:16:10.726Z,53.58
2018-02-24T00:17:21.617Z,53.96
2018-02-24T00:18:32.062Z,53.87
2018-02-24T00:19:42.578Z,53.58
2018-02-24T00:20:52.824Z,53.58
2018-02-24T00:22:03.563Z,53.96
2018-02-24T00:23:14.129Z,53.68
2018-02-24T00:24:24.821Z,53.87
2018-02-24T00:25:35.899Z,53.77
2018-02-24T00:26:45.946Z,53.96
2018-02-24T00:27:56.364Z,54.06
2018-02-24T00:29:06.999Z,54.06
2018-02-24T00:30:17.317Z,53.77
2018-02-24T00:31:27.620Z,53.87
2018-02-24T00:32:39.093Z,53.87
2018-02-24T00:33:49.766Z,53.87
2018-02-24T00:35:00.233Z,53.96
2018-02-24T00:36:10.603Z,53.68
2018-02-24T00:37:20.726Z,53.77
2018-02-24T00:38:31.250Z,53.49
2018-02-24T00:39:42.050Z,53.77
2018-02-24T00:40:52.442Z,53.96
2018-02-24T00:42:02.919Z,53.77
2018-02-24T00:43:13.521Z,53.68
2018-02-24T00:44:24.384Z,53.58
2018-02-24T00:45:35.197Z,53.87
2018-02-24T00:46:45.671Z,54.06
2018-02-24T00:47:56.454Z,53.87
2018-02-24T00:49:07.299Z,53.68
2018-02-24T00:50:17.770Z,53.87
2018-02-24T00:51:28.598Z,54.15
2018-02-24T00:52:39.174Z,54.25
2018-02-24T00:53:49.700Z,54.44
2018-02-24T00:55:00.620Z,53.87
2018-02-24T00:56:11.530Z,53.96
2018-02-24T00:57:22.211Z,54.44
2018-02-24T00:58:32.471Z,54.44
2018-02-24T00:59:43.274Z,54.53
2018-02-24T01:00:53.934Z,54.44
2018-02-24T01:02:04.412Z,54.25
2018-02-24T01:03:15.074Z,54.44
2018-02-24T01:04:25.288Z,54.53
2018-02-24T01:05:36.258Z,54.34
2018-02-24T01:06:46.841Z,54.34
2018-02-24T01:07:57.762Z,54.72
2018-02-24T01:09:08.315Z,54.44
2018-02-24T01:10:19.125Z,54.81
2018-02-24T01:11:29.978Z,54.91
2018-02-24T01:12:40.700Z,54.91
2018-02-24T01:13:51.421Z,54.91
2018-02-24T01:15:02.242Z,54.62
2018-02-24T01:16:13.090Z,55
2018-02-24T01:17:23.937Z,55.47
2018-02-24T01:18:34.305Z,55.19
2018-02-24T01:19:44.545Z,55.57
2018-02-24T01:20:56.428Z,55.66
2018-02-24T01:22:07.102Z,55.57
2018-02-24T01:23:17.319Z,55.47
2018-02-24T01:24:28.289Z,55.57
2018-02-24T01:25:38.783Z,55.47
2018-02-24T01:26:49.686Z,55.38
2018-02-24T01:28:00.655Z,55.47
2018-02-24T01:29:11.544Z,56.13
2018-02-24T01:30:22.366Z,55.76
2018-02-24T01:31:32.876Z,55.76
2018-02-24T01:32:42.759Z,55.76
2018-02-24T01:33:54.546Z,55.94
2018-02-24T01:35:05.224Z,55.94
2018-02-24T01:36:15.627Z,55.94
2018-02-24T01:37:26.093Z,55.66
2018-02-24T01:38:36.944Z,55.85
2018-02-24T01:39:47.177Z,56.04
2018-02-24T01:40:57.635Z,55.85
2018-02-24T01:42:08.640Z,55.94
2018-02-24T01:43:18.801Z,55.85
2018-02-24T01:44:29.515Z,55.94
2018-02-24T01:45:40.394Z,56.13
2018-02-24T01:46:51.174Z,56.42
2018-02-24T01:48:03.048Z,56.7
2018-02-24T01:49:13.625Z,56.51
2018-02-24T01:50:24.337Z,56.51
2018-02-24T01:51:35.146Z,56.42
2018-02-24T01:52:45.892Z,56.42
2018-02-24T01:53:56.805Z,56.42
2018-02-24T01:55:08.362Z,56.32
2018-02-24T01:56:18.804Z,56.23
2018-02-24T01:57:29.042Z,56.61
2018-02-24T01:58:39.813Z,56.7
2018-02-24T01:59:50.708Z,56.23
2018-02-24T02:01:01.478Z,56.7
2018-02-24T02:02:11.958Z,56.61
2018-02-24T02:03:21.789Z,56.32
2018-02-24T02:04:32.639Z,56.89
2018-02-24T02:05:42.844Z,56.99
2018-02-24T02:06:53.052Z,57.46
2018-02-24T02:08:03.977Z,57.27
2018-02-24T02:09:14.819Z,57.27
2018-02-24T02:10:25.338Z,57.55
2018-02-24T02:11:36.164Z,57.65
2018-02-24T02:12:46.432Z,57.84
2018-02-24T02:13:57.334Z,57.46
2018-02-24T02:15:08.261Z,57.74
2018-02-24T02:16:19.150Z,57.74
2018-02-24T02:17:29.553Z,57.84
2018-02-24T02:18:41.381Z,57.74
2018-02-24T02:19:51.880Z,58.22
2018-02-24T02:21:02.650Z,58.22
2018-02-24T02:22:13.109Z,58.12
2018-02-24T02:23:23.597Z,58.12
2018-02-24T02:24:34.097Z,58.4
2018-02-24T02:25:44.226Z,58.5
2018-02-24T02:26:55.036Z,58.31
2018-02-24T02:28:05.963Z,58.4
2018-02-24T02:29:16.571Z,58.4
2018-02-24T02:30:27.405Z,58.78
2018-02-24T02:31:38.119Z,58.78
2018-02-24T02:32:48.964Z,58.69
2018-02-24T02:33:59.915Z,58.69
2018-02-24T02:35:10.824Z,58.59
2018-02-24T02:36:21.375Z,58.59
2018-02-24T02:37:32.161Z,58.97
2018-02-24T02:38:43.146Z,58.87
2018-02-24T02:39:53.924Z,58.87
2018-02-24T02:41:04.955Z,58.69
2018-02-24T02:42:15.836Z,58.69
2018-02-24T02:43:26.670Z,59.06
2018-02-24T02:44:37.082Z,59.35
2018-02-24T02:45:47.273Z,59.25
2018-02-24T02:46:58.372Z,59.16
2018-02-24T02:48:09.369Z,58.97
2018-02-24T02:49:21.037Z,58.97
2018-02-24T02:50:31.459Z,59.82
2018-02-24T02:51:41.899Z,59.54
2018-02-24T02:52:52.658Z,59.92
2018-02-24T02:54:03.177Z,60.08
2018-02-24T02:55:13.609Z,60.39
2018-02-24T02:56:24.768Z,60.3
2018-02-24T02:57:34.869Z,60.39
2018-02-24T02:58:45.547Z,60.86
2018-02-24T02:59:56.289Z,60.96
2018-02-24T03:01:06.645Z,60.67
2018-02-24T03:02:17.052Z,60.77
2018-02-24T03:03:26.449Z,60.77
2018-02-24T03:04:36.663Z,60.67
2018-02-24T03:05:47.488Z,61.05
2018-02-24T03:06:57.363Z,60.96
2018-02-24T03:08:07.532Z,60.67
2018-02-24T03:09:17.822Z,60.96
2018-02-24T03:10:28.589Z,60.77
2018-02-24T03:11:39.295Z,61.05
2018-02-24T03:12:49.600Z,60.77
2018-02-24T03:14:00.315Z,61.05
2018-02-24T03:15:10.657Z,61.24
2018-02-24T03:16:22.280Z,61.71
2018-02-24T03:17:32.748Z,61.43
2018-02-24T03:18:43.501Z,61.24
2018-02-24T03:19:53.922Z,61.15
2018-02-24T03:21:04.391Z,60.77
2018-02-24T03:22:15.167Z,61.05
2018-02-24T03:23:26.020Z,61.15
2018-02-24T03:24:36.048Z,61.05
2018-02-24T03:25:46.523Z,61.71
2018-02-24T03:26:56.774Z,61.52
2018-02-24T03:28:06.942Z,61.05
2018-02-24T03:29:17.322Z,61.43
2018-02-24T03:30:28.135Z,61.52
2018-02-24T03:31:38.510Z,61.43
2018-02-24T03:32:48.520Z,61.8
2018-02-24T03:33:58.836Z,61.61
2018-02-24T03:35:09.315Z,61.61
2018-02-24T03:36:20.075Z,61.52
2018-02-24T03:37:31.776Z,61.71
2018-02-24T03:38:42.080Z,61.61
2018-02-24T03:39:52.893Z,61.9
2018-02-24T03:41:02.962Z,62.09
2018-02-24T03:42:13.249Z,61.96
2018-02-24T03:43:23.588Z,62.18
2018-02-24T03:44:34.377Z,62.62
2018-02-24T03:45:45.334Z,62.34
2018-02-24T03:46:56.138Z,62.37
2018-02-24T03:48:06.688Z,62.18
2018-02-24T03:49:16.922Z,62.47
2018-02-24T03:50:27.662Z,62.47
2018-02-24T03:51:38.432Z,62.37
2018-02-24T03:52:49.287Z,62.28
2018-02-24T03:53:59.995Z,62.47
2018-02-24T03:55:11.002Z,62.28
2018-02-24T03:56:21.723Z,62.18
2018-02-24T03:57:32.450Z,62.09
2018-02-24T03:58:43.093Z,61.99
2018-02-24T03:59:54.157Z,62.09
2018-02-24T04:01:04.788Z,61.9
2018-02-24T04:02:15.839Z,62.15
2018-02-24T04:03:26.460Z,62.53
2018-02-24T04:04:37.030Z,62.44
2018-02-24T04:05:48.123Z,62.91
2018-02-24T04:06:59.118Z,62.62
2018-02-24T04:08:09.458Z,62.91
2018-02-24T04:09:20.595Z,63
2018-02-24T04:10:31.604Z,63.38
2018-02-24T04:11:42.378Z,63.38
2018-02-24T04:12:53.174Z,63.95
2018-02-24T04:14:03.781Z,63.57
2018-02-24T04:15:14.961Z,63.76
2018-02-24T04:16:26.273Z,63.57
2018-02-24T04:17:36.408Z,63.76
2018-02-24T04:18:46.740Z,63.76
2018-02-24T04:19:57.679Z,63.57
2018-02-24T04:21:08.180Z,64.14
2018-02-24T04:22:19.285Z,63.95
2018-02-24T04:23:30.020Z,64.04
2018-02-24T04:24:41.138Z,64.51
2018-02-24T04:25:52.011Z,64.14
2018-02-24T04:27:03.088Z,64.32
2018-02-24T04:28:14.322Z,64.51
2018-02-24T04:29:24.385Z,64.7
2018-02-24T04:30:35.190Z,63.95
2018-02-24T04:31:46.274Z,64.32
2018-02-24T04:32:56.917Z,63.95
2018-02-24T04:34:07.359Z,64.42
2018-02-24T04:35:18.369Z,64.42
2018-02-24T04:36:28.766Z,64.42
2018-02-24T04:37:39.885Z,64.42
2018-02-24T04:38:50.602Z,64.51
2018-02-24T04:40:01.612Z,64.61
2018-02-24T04:41:12.753Z,64.51
2018-02-24T04:42:23.208Z,64.51
2018-02-24T04:43:34.317Z,64.42
2018-02-24T04:44:45.306Z,63.98
2018-02-24T04:45:56.366Z,63.95
2018-02-24T04:47:07.690Z,64.04
2018-02-24T04:48:18.099Z,63.95
2018-02-24T04:49:29.352Z,64.42
2018-02-24T04:50:40.642Z,64.61
2018-02-24T04:51:51.165Z,64.61
2018-02-24T04:53:01.951Z,64.32
2018-02-24T04:54:13.930Z,65.08
2018-02-24T04:55:24.501Z,64.98
2018-02-24T04:56:34.472Z,65.17
2018-02-24T04:57:45.250Z,64.98
2018-02-24T04:58:56.295Z,65.27
2018-02-24T05:00:07.449Z,65.55
2018-02-24T05:01:18.327Z,64.98
2018-02-24T05:02:29.319Z,65.08
2018-02-24T05:03:40.348Z,65.17
2018-02-24T05:04:51.497Z,65.55
2018-02-24T05:06:02.597Z,65.17
2018-02-24T05:07:13.759Z,65.17
2018-02-24T05:08:24.891Z,65.27
2018-02-24T05:09:35.892Z,64.98
2018-02-24T05:10:47.075Z,65.55
2018-02-24T05:11:58.066Z,65.46
2018-02-24T05:13:09.075Z,65.17
2018-02-24T05:14:19.737Z,65.36
2018-02-24T05:15:30.878Z,65.17
2018-02-24T05:16:41.676Z,65.17
2018-02-24T05:17:52.666Z,64.89
2018-02-24T05:19:03.516Z,64.98
2018-02-24T05:20:14.483Z,65.17
2018-02-24T05:21:26.104Z,65.17
2018-02-24T05:22:37.050Z,64.89
2018-02-24T05:23:47.999Z,65.36
2018-02-24T05:24:58.819Z,65.46
2018-02-24T05:26:09.943Z,65.08
2018-02-24T05:27:20.817Z,65.27
2018-02-24T05:28:31.192Z,65.08
2018-02-24T05:29:42.133Z,64.98
2018-02-24T05:30:53.184Z,65.27
2018-02-24T05:32:03.892Z,65.27
2018-02-24T05:33:14.605Z,65.74
2018-02-24T05:34:25.590Z,65.55
2018-02-24T05:35:36.208Z,65.55
2018-02-24T05:36:47.065Z,66.12
2018-02-24T05:37:57.998Z,66.12
2018-02-24T05:39:08.892Z,66.22
2018-02-24T05:40:19.728Z,66.22
2018-02-24T05:41:30.498Z,65.93
2018-02-24T05:42:41.216Z,66.12
2018-02-24T05:43:51.369Z,66.03
2018-02-24T05:45:02.376Z,66.03
2018-02-24T05:46:13.326Z,66.12
2018-02-24T05:47:23.982Z,66.22
2018-02-24T05:48:34.524Z,66.5
2018-02-24T05:49:45.303Z,66.59
2018-02-24T05:50:56.126Z,66.5
2018-02-24T05:52:06.625Z,66.41
2018-02-24T05:53:17.525Z,66.82
2018-02-24T05:54:28.522Z,66.06
2018-02-24T05:55:39.099Z,65.87
2018-02-24T05:56:49.953Z,65.97
2018-02-24T05:57:59.708Z,66.25
2018-02-24T05:59:10.107Z,65.87
2018-02-24T06:00:20.267Z,65.59
2018-02-24T06:01:31.067Z,65.49
2018-02-24T06:02:41.974Z,65.78
2018-02-24T06:03:52.779Z,65.59
2018-02-24T06:05:03.955Z,65.78
2018-02-24T06:06:14.834Z,65.59
2018-02-24T06:07:25.687Z,65.68
2018-02-24T06:08:36.168Z,65.59
2018-02-24T06:09:46.986Z,65.49
2018-02-24T06:10:57.777Z,65.49
2018-02-24T06:12:08.541Z,65.59
2018-02-24T06:13:18.644Z,65.78
2018-02-24T06:14:29.457Z,65.78
2018-02-24T06:15:40.193Z,65.59
2018-02-24T06:16:51.327Z,65.78
2018-02-24T06:18:01.973Z,65.49
2018-02-24T06:19:12.884Z,65.68
2018-02-24T06:20:24.597Z,65.59
2018-02-24T06:21:35.265Z,65.68
2018-02-24T06:22:45.598Z,65.4
2018-02-24T06:23:56.184Z,65.3
2018-02-24T06:25:06.886Z,65.11
2018-02-24T06:26:16.884Z,65.21
2018-02-24T06:27:27.080Z,65.4
2018-02-24T06:28:36.970Z,65.87
2018-02-24T06:29:46.847Z,65.59
2018-02-24T06:30:57.094Z,65.49
2018-02-24T06:32:07.213Z,65.59
2018-02-24T06:33:17.339Z,66.16
2018-02-24T06:34:27.455Z,65.97
2018-02-24T06:35:37.723Z,66.16
2018-02-24T06:36:47.959Z,66.06
2018-02-24T06:37:57.819Z,65.59
2018-02-24T06:39:07.819Z,65.87
2018-02-24T06:40:17.961Z,65.68
2018-02-24T06:41:28.084Z,65.49
2018-02-24T06:42:38.129Z,65.49
2018-02-24T06:43:48.344Z,65.59
2018-02-24T06:44:58.211Z,65.78
2018-02-24T06:46:08.369Z,65.68
2018-02-24T06:47:18.488Z,65.78
2018-02-24T06:48:28.703Z,65.59
2018-02-24T06:49:38.875Z,65.59
2018-02-24T06:50:48.776Z,66.06
2018-02-24T06:51:58.889Z,66.06
2018-02-24T06:53:09.054Z,66.25
2018-02-24T06:54:19.188Z,65.49
2018-02-24T06:55:29.100Z,65.68
2018-02-24T06:56:38.999Z,65.59
2018-02-24T06:57:48.925Z,65.59
2018-02-24T06:58:59.190Z,65.68
2018-02-24T07:00:08.976Z,65.68
2018-02-24T07:01:19.225Z,65.59
2018-02-24T07:02:29.351Z,65.68
2018-02-24T07:03:39.257Z,65.59
2018-02-24T07:04:49.395Z,65.59
2018-02-24T07:05:59.543Z,65.81
2018-02-24T07:07:09.412Z,66.19
2018-02-24T07:08:19.338Z,65.62
2018-02-24T07:09:29.592Z,65.72
2018-02-24T07:10:40.052Z,65.72
2018-02-24T07:11:49.666Z,65.81
2018-02-24T07:12:59.904Z,65.72
2018-02-24T07:14:09.824Z,65.53
2018-02-24T07:15:19.732Z,65.81
2018-02-24T07:16:29.958Z,65.34
2018-02-24T07:17:39.983Z,65.43
2018-02-24T07:18:50.162Z,66.19
2018-02-24T07:20:00.338Z,66.09
2018-02-24T07:21:09.986Z,66.19
2018-02-24T07:22:19.912Z,66.09
2018-02-24T07:23:30.080Z,66.19
2018-02-24T07:24:40.298Z,66.56
2018-02-24T07:25:50.490Z,66.75
2018-02-24T07:27:00.709Z,66.66
2018-02-24T07:28:10.245Z,66.66
2018-02-24T07:29:20.376Z,66.47
2018-02-24T07:30:30.485Z,66.75
2018-02-24T07:31:40.630Z,66.38
2018-02-24T07:32:50.836Z,66.75
2018-02-24T07:34:01.117Z,67.03
2018-02-24T07:35:10.697Z,67.13
2018-02-24T07:36:20.930Z,67.32
2018-02-24T07:37:31.140Z,67.6
2018-02-24T07:38:41.354Z,67.7
2018-02-24T07:39:51.638Z,67.32
2018-02-24T07:41:01.557Z,67.55
2018-02-24T07:42:11.698Z,67.7
2018-02-24T07:43:21.579Z,67.45
2018-02-24T07:44:31.754Z,67.7
2018-02-24T07:45:41.285Z,67.79
2018-02-24T07:46:51.460Z,68.46
2018-02-24T07:48:01.739Z,68.74
2018-02-24T07:49:11.947Z,68.55
2018-02-24T07:50:22.172Z,68.84
2018-02-24T07:51:32.385Z,68.84
2018-02-24T07:52:42.646Z,68.93
2018-02-24T07:53:52.527Z,68.77
2018-02-24T07:55:02.401Z,68.87
2018-02-24T07:56:12.514Z,68.77
2018-02-24T07:57:22.662Z,68.77
2018-02-24T07:58:32.552Z,69.06
2018-02-24T07:59:42.726Z,69.06
2018-02-24T08:00:52.848Z,69.06
2018-02-24T08:02:03.000Z,69.06
2018-02-24T08:03:12.868Z,69.06
2018-02-24T08:04:22.650Z,69.06
2018-02-24T08:05:32.530Z,69.25
2018-02-24T08:06:42.759Z,68.77
2018-02-24T08:07:52.685Z,68.96
2018-02-24T08:09:02.288Z,68.87
2018-02-24T08:10:13.408Z,69.25
2018-02-24T08:11:23.082Z,68.87
2018-02-24T08:12:33.325Z,68.96
2018-02-24T08:13:43.576Z,69.06
2018-02-24T08:14:53.846Z,68.96
2018-02-24T08:16:04.107Z,68.59
2018-02-24T08:17:15.332Z,69.06
2018-02-24T08:18:25.554Z,68.9
2018-02-24T08:19:35.727Z,68.96
2018-02-24T08:20:45.645Z,68.62
2018-02-24T08:21:55.802Z,68.33
2018-02-24T08:23:05.926Z,68.62
2018-02-24T08:24:16.140Z,68.43
2018-02-24T08:25:26.035Z,68.33
2018-02-24T08:26:36.213Z,67.86
2018-02-24T08:27:46.416Z,68.05
2018-02-24T08:28:56.339Z,67.39
2018-02-24T08:30:06.496Z,67.39
2018-02-24T08:31:16.672Z,67.49
2018-02-24T08:32:26.067Z,67.58
2018-02-24T08:33:36.217Z,67.3
2018-02-24T08:34:47.345Z,67.3
2018-02-24T08:35:57.502Z,66.92
2018-02-24T08:37:07.451Z,66.67
2018-02-24T08:38:17.572Z,66.76
2018-02-24T08:39:27.343Z,66.86
2018-02-24T08:40:37.500Z,66.47
2018-02-24T08:41:47.667Z,66.19
2018-02-24T08:42:57.533Z,65.53
2018-02-24T08:44:07.704Z,65.66
2018-02-24T08:45:17.847Z,64.71
2018-02-24T08:46:27.994Z,64.71
2018-02-24T08:47:37.808Z,64.61
2018-02-24T08:48:48.028Z,64.08
2018-02-24T08:49:58.174Z,63.17
2018-02-24T08:51:08.068Z,62.78
2018-02-24T08:52:18.209Z,61.46
2018-02-24T08:53:27.866Z,61.93
2018-02-24T08:54:37.393Z,60.98
2018-02-24T08:55:46.929Z,61.17
2018-02-24T08:56:57.133Z,60.22
2018-02-24T08:58:07.275Z,59.37
2018-02-24T08:59:17.453Z,59.46
2018-02-24T09:00:27.300Z,59.46
2018-02-24T09:01:37.349Z,59.27
2018-02-24T09:02:46.878Z,58.89
2018-02-24T09:03:57.077Z,58.58
2018-02-24T09:05:06.895Z,58.39
2018-02-24T09:06:16.877Z,58.58
2018-02-24T09:07:27.323Z,57.47
2018-02-24T09:08:37.471Z,56.46
2018-02-24T09:09:47.635Z,54.9
2018-02-24T09:10:57.395Z,53.88
2018-02-24T09:12:07.612Z,52.76
2018-02-24T09:13:17.783Z,51.18
2018-02-24T09:14:27.952Z,50.42
2018-02-24T09:15:37.501Z,48.99
2018-02-24T09:16:47.791Z,48.35
2018-02-24T09:17:58.040Z,48.06
2018-02-24T09:19:08.412Z,46.18
2018-02-24T09:20:18.095Z,45.83
2018-02-24T09:21:27.951Z,44.56
2018-02-24T09:22:38.156Z,44.27
2018-02-24T09:23:48.311Z,43.32
2018-02-24T09:24:58.192Z,41.8
2018-02-24T09:26:07.822Z,41.23
2018-02-24T09:27:17.713Z,41.04
2018-02-24T09:28:27.847Z,40.28
2018-02-24T09:29:37.888Z,38.96
2018-02-24T09:30:47.814Z,36.3
2018-02-24T09:31:58.072Z,35.44
2018-02-24T09:33:07.969Z,36.2
2018-02-24T09:34:17.853Z,36.77
2018-02-24T09:35:28.019Z,35.55
2018-02-24T09:36:38.226Z,33.45
2018-02-24T09:37:48.450Z,31.47
2018-02-24T09:38:58.347Z,32.03
2018-02-24T09:40:08.527Z,31.64
2018-02-24T09:41:18.383Z,31.64
2018-02-24T09:42:28.431Z,31.07
2018-02-24T09:43:38.891Z,30.79
2018-02-24T09:44:49.101Z,31.07
2018-02-24T09:45:59.261Z,29.37
2018-02-24T09:47:09.474Z,28.13
2018-02-24T09:48:19.227Z,27.84
2018-02-24T09:49:29.139Z,26.98
2018-02-24T09:50:39.354Z,27.66
2018-02-24T09:51:49.258Z,28.89
2018-02-24T09:52:59.419Z,27.56
2018-02-24T09:54:09.342Z,27.84
2018-02-24T09:55:19.554Z,27.76
2018-02-24T09:56:32.177Z,27.76
2018-02-24T10:01:34.683Z,25.68
2018-02-24T10:02:44.905Z,25.1
2018-02-24T10:03:55.060Z,24.44
2018-02-24T10:05:05.240Z,24.44
2018-02-24T10:06:15.453Z,24.63
2018-02-24T10:07:25.641Z,24.8
2018-02-24T10:08:35.821Z,24.62
2018-02-24T10:09:45.756Z,24.23
2018-02-24T10:10:56.250Z,23.94
2018-02-24T10:12:06.331Z,24.23
2018-02-24T10:13:16.721Z,24.41
2018-02-24T10:14:26.934Z,24.6
2018-02-24T10:15:37.092Z,24.69
2018-02-24T10:16:47.309Z,24.69
2018-02-24T10:17:57.550Z,25.27
2018-02-24T10:19:07.718Z,24.32
2018-02-24T10:20:17.561Z,24.6
2018-02-24T10:21:28.089Z,24.98
2018-02-24T10:22:37.938Z,24.32
2018-02-24T10:23:47.827Z,23.46
2018-02-24T10:24:58.160Z,23.74
2018-02-24T10:26:08.544Z,23.35
2018-02-24T10:27:18.440Z,24.21
2018-02-24T10:28:28.663Z,24.02
2018-02-24T10:29:38.842Z,23.24
2018-02-24T10:30:49.056Z,24.19
2018-02-24T10:31:59.235Z,24.01
2018-02-24T10:33:09.427Z,23.91
2018-02-24T10:34:19.668Z,24.48
2018-02-24T10:35:29.953Z,24.21
2018-02-24T10:36:39.752Z,23.44
2018-02-24T10:37:49.986Z,23.44
2018-02-24T10:39:00.222Z,23.25
2018-02-24T10:40:10.400Z,22.59
2018-02-24T10:41:20.619Z,22.4
2018-02-24T10:42:30.846Z,22.77
2018-02-24T10:43:41.020Z,22.39
2018-02-24T10:44:51.441Z,22.77
2018-02-24T10:46:01.761Z,22.77
2018-02-24T10:47:11.660Z,23.24
2018-02-24T10:48:21.881Z,23.34
2018-02-24T10:49:31.862Z,23.43
2018-02-24T10:50:41.770Z,22.77
2018-02-24T10:51:51.971Z,22.4
2018-02-24T10:53:02.171Z,22.4
2018-02-24T10:54:12.391Z,22.4
2018-02-24T10:55:21.695Z,22.68
2018-02-24T10:56:31.620Z,22.88
2018-02-24T10:57:41.839Z,22.3
2018-02-24T10:58:52.038Z,22.78
2018-02-24T11:00:02.248Z,22.78
2018-02-24T11:01:12.428Z,22.11
2018-02-24T11:02:23.619Z,21.91
2018-02-24T11:03:33.819Z,22.28
2018-02-24T11:04:43.992Z,23.23
2018-02-24T11:05:53.990Z,23.33
2018-02-24T11:07:04.347Z,23.42
2018-02-24T11:08:14.262Z,23.52
2018-02-24T11:09:24.456Z,23.99
2018-02-24T11:10:34.645Z,23.34
2018-02-24T11:11:44.306Z,22.77
2018-02-24T11:12:54.567Z,22.78
2018-02-24T11:14:04.504Z,22.88
2018-02-24T11:15:14.411Z,22.13
2018-02-24T11:16:24.605Z,20.98
2018-02-24T11:17:34.769Z,21.36
2018-02-24T11:18:44.979Z,21.36
2018-02-24T11:19:55.176Z,20.03
2018-02-24T11:21:05.372Z,20.4
2018-02-24T11:22:47.528Z,20.12
2018-02-24T11:23:57.231Z,19.35
2018-02-24T11:25:07.449Z,19.35
2018-02-24T11:26:17.420Z,19.74
2018-02-24T11:27:27.421Z,20.31
2018-02-24T11:28:37.621Z,19.45
2018-02-24T11:29:47.873Z,19.64
2018-02-24T11:30:59.148Z,20.49
2018-02-24T11:32:11.574Z,20.49
2018-02-24T11:33:22.581Z,20.78
2018-02-24T11:34:32.165Z,20.49
2018-02-24T11:35:42.344Z,20.97
2018-02-24T11:36:52.516Z,20.97
2018-02-24T11:38:02.709Z,20.88
2018-02-24T11:39:12.671Z,21.17
2018-02-24T11:40:22.853Z,21.08
2018-02-24T11:41:32.778Z,20.7
2018-02-24T11:42:43.013Z,19.66
2018-02-24T11:43:52.879Z,19.47
2018-02-24T11:45:03.116Z,19.94
2018-02-24T11:46:16.052Z,19.27
2018-02-24T11:47:27.453Z,19.55
2018-02-24T11:48:37.869Z,19.17
2018-02-24T11:49:48.096Z,19.55
2018-02-24T11:50:59.128Z,19.35
2018-02-24T11:52:08.714Z,19.73
2018-02-24T11:53:19.769Z,19.73
2018-02-24T11:54:29.715Z,19.45
2018-02-24T11:55:40.050Z,19.44
2018-02-24T11:56:50.295Z,19.62
2018-02-24T11:58:00.755Z,20.48
2018-02-24T11:59:10.973Z,20.47
2018-02-24T12:00:20.894Z,20.18
2018-02-24T12:01:30.794Z,20.37
2018-02-24T12:02:40.781Z,20.09
2018-02-24T12:03:50.696Z,20
2018-02-24T12:05:00.838Z,20.39
2018-02-24T12:06:11.020Z,20.39
2018-02-24T12:07:20.353Z,20.2
2018-02-24T12:08:30.233Z,20.67
2018-02-24T12:09:40.422Z,20.95
2018-02-24T12:10:49.987Z,21.42
2018-02-24T12:12:00.269Z,21.05
2018-02-24T12:13:10.527Z,20.86
2018-02-24T12:14:20.792Z,20.76
2018-02-24T12:15:30.790Z,20.85
2018-02-24T12:17:12.473Z,21.42
2018-02-24T12:18:22.719Z,21.51
2018-02-24T12:19:32.749Z,21.51
2018-02-24T12:20:42.944Z,21.8
2018-02-24T12:21:44.590Z,22.19
2018-02-24T12:22:54.576Z,21.51
2018-02-24T12:24:04.781Z,21.9
2018-02-24T12:25:14.953Z,21.99
2018-02-24T12:26:24.847Z,21.23
2018-02-24T12:27:35.137Z,21.33
2018-02-24T12:28:45.435Z,21.51
2018-02-24T12:29:55.615Z,21.7
2018-02-24T12:31:05.877Z,22.08
2018-02-24T12:32:16.057Z,22.08
2018-02-24T12:33:26.267Z,22.27
2018-02-24T12:35:08.075Z,22.17
2018-02-24T12:36:18.051Z,22.09
2018-02-24T12:37:28.241Z,22.09
2018-02-24T12:38:38.154Z,21.71
2018-02-24T12:39:48.489Z,22.19
2018-02-24T12:40:58.736Z,21.72
2018-02-24T12:42:08.662Z,21.15
2018-02-24T12:43:18.878Z,20.86
2018-02-24T12:44:28.828Z,21.24
2018-02-24T12:45:39.045Z,21.06
2018-02-24T12:46:49.228Z,20.68
2018-02-24T12:47:59.295Z,20.68
2018-02-24T12:49:09.134Z,21.16
2018-02-24T12:50:19.545Z,20.68
2018-02-24T12:51:29.804Z,20.49
2018-02-24T12:52:39.646Z,20.49
2018-02-24T12:53:49.891Z,20.68
2018-02-24T12:54:59.854Z,20.97
2018-02-24T12:56:10.173Z,20.76
2018-02-24T12:57:20.370Z,21.05
2018-02-24T12:58:29.982Z,21.15
2018-02-24T12:59:40.311Z,21.53
2018-02-24T13:00:49.899Z,21.15
2018-02-24T13:01:59.866Z,21.24
2018-02-24T13:03:10.104Z,21.53
2018-02-24T13:04:19.999Z,21.05
2018-02-24T13:05:29.918Z,20.78
2018-02-24T13:06:39.569Z,20.76
2018-02-24T13:07:49.798Z,20.86
2018-02-24T13:08:59.423Z,20.76
2018-02-24T13:10:09.670Z,20.96
2018-02-24T13:11:19.743Z,21.05
2018-02-24T13:12:30.011Z,20.78
2018-02-24T13:13:40.219Z,20.86
2018-02-24T13:14:49.865Z,20.96
2018-02-24T13:15:59.825Z,20.85
2018-02-24T13:17:09.547Z,21.04
2018-02-24T13:18:19.783Z,21.03
2018-02-24T13:19:30.008Z,21.6
2018-02-24T13:20:40.227Z,22.06
2018-02-24T13:21:50.447Z,22.26
2018-02-24T13:23:00.768Z,22.92
2018-02-24T13:24:11.075Z,23.21
2018-02-24T13:25:21.356Z,23.4
2018-02-24T13:26:31.747Z,23.59
2018-02-24T13:27:41.764Z,23.88
2018-02-24T13:28:51.712Z,23.97
2018-02-24T13:30:01.663Z,24.15
2018-02-24T13:31:11.628Z,24.05
2018-02-24T13:32:21.860Z,24.05
2018-02-24T13:33:32.133Z,23.86
2018-02-24T13:34:42.336Z,24.05
2018-02-24T13:35:52.575Z,24.05
2018-02-24T13:37:02.772Z,24.23
2018-02-24T13:38:13.430Z,24.23
2018-02-24T13:39:23.656Z,23.85
2018-02-24T13:40:33.813Z,24.51
2018-02-24T13:41:43.834Z,24.6
2018-02-24T13:42:53.804Z,24.51
2018-02-24T13:44:03.994Z,24.88
2018-02-24T13:45:14.201Z,25.17
2018-02-24T13:46:24.412Z,25.17
2018-02-24T13:47:34.438Z,25.17
2018-02-24T13:48:44.352Z,25.17
2018-02-24T13:49:54.271Z,24.51
2018-02-24T13:51:04.616Z,24.51
2018-02-24T13:52:14.849Z,24.12
2018-02-24T13:53:25.128Z,24.32
2018-02-24T13:54:34.955Z,24.41
2018-02-24T13:55:45.204Z,24.3
2018-02-24T13:56:55.521Z,24.58
2018-02-24T13:58:05.344Z,24.58
2018-02-24T13:59:15.207Z,24.87
2018-02-24T14:00:25.107Z,25.15
2018-02-24T14:01:35.348Z,25.06
2018-02-24T14:02:45.571Z,25.15
2018-02-24T14:03:55.874Z,25.17
2018-02-24T14:05:06.083Z,25.06
2018-02-24T14:06:16.327Z,25.15
2018-02-24T14:07:26.298Z,25.15
2018-02-24T14:08:36.479Z,25.25
2018-02-24T14:09:46.177Z,25.25
2018-02-24T14:10:56.122Z,25.63
2018-02-24T14:12:06.367Z,25.54
2018-02-24T14:13:16.592Z,25.62
2018-02-24T14:14:26.744Z,26.09
2018-02-24T14:15:36.929Z,25.9
2018-02-24T14:16:47.269Z,26.57
2018-02-24T14:17:57.174Z,27.04
2018-02-24T14:19:07.421Z,27.12
2018-02-24T14:20:17.672Z,27.03
2018-02-24T14:21:28.103Z,26.93
2018-02-24T14:22:38.378Z,26.84
2018-02-24T14:23:49.551Z,27.03
2018-02-24T14:24:59.773Z,27.03
2018-02-24T14:26:09.448Z,26.75
2018-02-24T14:27:19.444Z,26.65
2018-02-24T14:28:29.632Z,27.03
2018-02-24T14:29:39.781Z,26.27
2018-02-24T14:30:50.679Z,26.36
2018-02-24T14:32:00.746Z,26.75
2018-02-24T14:33:10.932Z,26.93
2018-02-24T14:34:20.921Z,27.31
2018-02-24T14:35:31.148Z,27.03
2018-02-24T14:36:41.088Z,27.22
2018-02-24T14:37:51.303Z,27.78
2018-02-24T14:39:01.472Z,27.59
2018-02-24T14:40:11.134Z,27.98
2018-02-24T14:41:21.053Z,27.69
2018-02-24T14:42:31.341Z,27.78
2018-02-24T14:43:41.526Z,27.88
2018-02-24T14:44:51.783Z,28.07
2018-02-24T14:46:01.964Z,28.17
2018-02-24T14:47:11.313Z,28.36
2018-02-24T14:48:21.515Z,28.64
2018-02-24T14:49:31.509Z,29.11
2018-02-24T14:50:41.784Z,29.11
2018-02-24T14:51:52.213Z,29.59
2018-02-24T14:53:02.371Z,29.97
2018-02-24T14:54:12.588Z,30.14
2018-02-24T14:55:22.986Z,30.33
2018-02-24T14:56:33.181Z,30.14
2018-02-24T14:57:43.371Z,30.05
2018-02-24T14:58:53.694Z,29.95
2018-02-24T15:00:03.871Z,30.05
2018-02-24T15:01:14.156Z,29.95
2018-02-24T15:02:24.401Z,29.86
2018-02-24T15:03:34.116Z,29.57
2018-02-24T15:04:44.031Z,29.29
2018-02-24T15:05:53.987Z,29.19
2018-02-24T15:07:04.374Z,29.38
2018-02-24T15:08:13.684Z,29.48
2018-02-24T15:09:24.015Z,29.38
2018-02-24T15:10:34.507Z,29.38
2018-02-24T15:11:44.728Z,29.67
2018-02-24T15:12:54.656Z,29.57
2018-02-24T15:14:04.919Z,29.19